sensor_id;sensor_type;location;lat;lon;timestamp;temperature;humidity
29571;DHT22;16814;52.118;11.436;2024-02-04T00:00:09;7.80;99.90
29571;DHT22;16814;52.118;11.436;2024-02-04T00:02:36;7.80;99.90
29571;DHT22;16814;52.118;11.436;2024-02-04T00:05:03;7.80;99.90
29571;DHT22;16814;52.118;11.436;2024-02-04T00:07:29;7.80;99.90
29571;DHT22;16814;52.118;11.436;2024-02-04T00:09:54;7.80;99.90
29571;DHT22;16814;52.118;11.436;2024-02-04T00:12:20;7.80;99.90
29571;DHT22;16814;52.118;11.436;2024-02-04T00:14:47;7.80;99.90
29571;DHT22;16814;52.118;11.436;2024-02-04T00:17:15;7.80;99.90
29571;DHT22;16814;52.118;11.436;2024-02-04T00:19:41;7.80;99.90
29571;DHT22;16814;52.118;11.436;2024-02-04T00:22:07;7.90;99.90
29571;DHT22;16814;52.118;11.436;2024-02-04T00:24:32;7.80;99.90
29571;DHT22;16814;52.118;11.436;2024-02-04T00:26:58;7.90;99.90
29571;DHT22;16814;52.118;11.436;2024-02-04T00:29:23;7.90;99.90
29571;DHT22;16814;52.118;11.436;2024-02-04T00:31:49;7.90;99.90
29571;DHT22;16814;52.118;11.436;2024-02-04T00:34:14;7.90;99.90
29571;DHT22;16814;52.118;11.436;2024-02-04T00:36:40;7.90;99.90
29571;DHT22;16814;52.118;11.436;2024-02-04T00:39:05;7.90;99.90
29571;DHT22;16814;52.118;11.436;2024-02-04T00:41:33;7.90;99.90
29571;DHT22;16814;52.118;11.436;2024-02-04T00:43:58;7.90;99.90
29571;DHT22;16814;52.118;11.436;2024-02-04T00:46:24;7.90;99.90
29571;DHT22;16814;52.118;11.436;2024-02-04T00:48:49;7.90;99.90
29571;DHT22;16814;52.118;11.436;2024-02-04T00:51:15;7.90;99.90
29571;DHT22;16814;52.118;11.436;2024-02-04T00:53:45;7.90;99.90
29571;DHT22;16814;52.118;11.436;2024-02-04T00:56:11;7.90;99.90
29571;DHT22;16814;52.118;11.436;2024-02-04T00:58:38;8.00;99.90
29571;DHT22;16814;52.118;11.436;2024-02-04T01:01:04;7.90;99.90
29571;DHT22;16814;52.118;11.436;2024-02-04T01:03:31;7.90;99.90
29571;DHT22;16814;52.118;11.436;2024-02-04T01:05:56;7.80;99.90
29571;DHT22;16814;52.118;11.436;2024-02-04T01:08:22;7.80;99.90
29571;DHT22;16814;52.118;11.436;2024-02-04T01:10:48;7.80;99.90
29571;DHT22;16814;52.118;11.436;2024-02-04T01:13:16;7.80;99.90
29571;DHT22;16814;52.118;11.436;2024-02-04T01:15:42;7.70;99.90
29571;DHT22;16814;52.118;11.436;2024-02-04T01:18:08;7.70;99.90
29571;DHT22;16814;52.118;11.436;2024-02-04T01:20:33;7.70;99.90
29571;DHT22;16814;52.118;11.436;2024-02-04T01:22:59;7.70;99.90
29571;DHT22;16814;52.118;11.436;2024-02-04T01:25:24;7.70;99.90
29571;DHT22;16814;52.118;11.436;2024-02-04T01:27:50;7.60;99.90
29571;DHT22;16814;52.118;11.436;2024-02-04T01:30:15;7.60;99.90
29571;DHT22;16814;52.118;11.436;2024-02-04T01:32:41;7.60;99.90
29571;DHT22;16814;52.118;11.436;2024-02-04T01:35:07;7.60;99.90
29571;DHT22;16814;52.118;11.436;2024-02-04T01:37:32;7.60;99.90
29571;DHT22;16814;52.118;11.436;2024-02-04T01:39:58;7.50;99.90
29571;DHT22;16814;52.118;11.436;2024-02-04T01:42:23;7.50;99.90
29571;DHT22;16814;52.118;11.436;2024-02-04T01:44:51;7.50;99.90
29571;DHT22;16814;52.118;11.436;2024-02-04T01:47:16;7.50;99.90
29571;DHT22;16814;52.118;11.436;2024-02-04T01:49:43;7.50;99.90
29571;DHT22;16814;52.118;11.436;2024-02-04T01:52:10;7.40;99.90
29571;DHT22;16814;52.118;11.436;2024-02-04T01:54:37;7.40;99.90
29571;DHT22;16814;52.118;11.436;2024-02-04T01:57:04;7.40;99.90
29571;DHT22;16814;52.118;11.436;2024-02-04T01:59:30;7.40;99.90
29571;DHT22;16814;52.118;11.436;2024-02-04T02:02:05;7.40;99.90
29571;DHT22;16814;52.118;11.436;2024-02-04T02:04:31;7.40;99.90
29571;DHT22;16814;52.118;11.436;2024-02-04T02:06:57;7.40;99.90
29571;DHT22;16814;52.118;11.436;2024-02-04T02:09:25;7.40;99.90
29571;DHT22;16814;52.118;11.436;2024-02-04T02:11:58;7.40;99.90
29571;DHT22;16814;52.118;11.436;2024-02-04T02:14:30;7.40;99.90
29571;DHT22;16814;52.118;11.436;2024-02-04T02:16:59;7.30;99.90
29571;DHT22;16814;52.118;11.436;2024-02-04T02:19:35;7.30;99.90
29571;DHT22;16814;52.118;11.436;2024-02-04T02:24:38;7.40;99.90
29571;DHT22;16814;52.118;11.436;2024-02-04T02:27:07;7.30;99.90
29571;DHT22;16814;52.118;11.436;2024-02-04T02:29:33;7.30;99.90
29571;DHT22;16814;52.118;11.436;2024-02-04T02:31:59;7.30;99.90
29571;DHT22;16814;52.118;11.436;2024-02-04T02:34:26;7.30;99.90
29571;DHT22;16814;52.118;11.436;2024-02-04T02:37:15;7.30;99.90
29571;DHT22;16814;52.118;11.436;2024-02-04T02:40:06;7.30;99.90
29571;DHT22;16814;52.118;11.436;2024-02-04T02:42:34;7.30;99.90
29571;DHT22;16814;52.118;11.436;2024-02-04T02:45:01;7.30;99.90
29571;DHT22;16814;52.118;11.436;2024-02-04T02:47:29;7.30;99.90
29571;DHT22;16814;52.118;11.436;2024-02-04T02:49:55;7.40;99.90
29571;DHT22;16814;52.118;11.436;2024-02-04T02:52:21;7.40;99.90
29571;DHT22;16814;52.118;11.436;2024-02-04T02:54:47;7.40;99.90
29571;DHT22;16814;52.118;11.436;2024-02-04T02:57:12;7.40;99.90
29571;DHT22;16814;52.118;11.436;2024-02-04T02:59:38;7.40;99.90
29571;DHT22;16814;52.118;11.436;2024-02-04T03:02:03;7.40;99.90
29571;DHT22;16814;52.118;11.436;2024-02-04T03:04:29;7.30;99.90
29571;DHT22;16814;52.118;11.436;2024-02-04T03:06:54;7.30;99.90
29571;DHT22;16814;52.118;11.436;2024-02-04T03:09:20;7.30;99.90
29571;DHT22;16814;52.118;11.436;2024-02-04T03:11:45;7.30;99.90
29571;DHT22;16814;52.118;11.436;2024-02-04T03:14:13;7.30;99.90
29571;DHT22;16814;52.118;11.436;2024-02-04T03:16:39;7.30;99.90
29571;DHT22;16814;52.118;11.436;2024-02-04T03:19:05;7.30;99.90
29571;DHT22;16814;52.118;11.436;2024-02-04T03:21:31;7.30;99.90
29571;DHT22;16814;52.118;11.436;2024-02-04T03:23:57;7.30;99.90
29571;DHT22;16814;52.118;11.436;2024-02-04T03:26:22;7.30;99.90
29571;DHT22;16814;52.118;11.436;2024-02-04T03:28:48;7.30;99.90
29571;DHT22;16814;52.118;11.436;2024-02-04T03:31:22;7.30;99.90
29571;DHT22;16814;52.118;11.436;2024-02-04T03:33:48;7.20;99.90
29571;DHT22;16814;52.118;11.436;2024-02-04T03:36:17;7.30;99.90
29571;DHT22;16814;52.118;11.436;2024-02-04T03:38:43;7.30;99.90
29571;DHT22;16814;52.118;11.436;2024-02-04T03:41:09;7.30;99.90
29571;DHT22;16814;52.118;11.436;2024-02-04T03:43:36;7.40;99.90
29571;DHT22;16814;52.118;11.436;2024-02-04T03:46:01;7.40;99.90
29571;DHT22;16814;52.118;11.436;2024-02-04T03:48:27;7.40;99.90
29571;DHT22;16814;52.118;11.436;2024-02-04T03:50:52;7.40;99.90
29571;DHT22;16814;52.118;11.436;2024-02-04T03:53:18;7.40;99.90
29571;DHT22;16814;52.118;11.436;2024-02-04T03:55:44;7.40;99.90
29571;DHT22;16814;52.118;11.436;2024-02-04T03:58:09;7.50;99.90
29571;DHT22;16814;52.118;11.436;2024-02-04T04:00:35;7.50;99.90
29571;DHT22;16814;52.118;11.436;2024-02-04T04:03:01;7.50;99.90
29571;DHT22;16814;52.118;11.436;2024-02-04T04:05:26;7.50;99.90
29571;DHT22;16814;52.118;11.436;2024-02-04T04:07:52;7.50;99.90
29571;DHT22;16814;52.118;11.436;2024-02-04T04:10:17;7.50;99.90
29571;DHT22;16814;52.118;11.436;2024-02-04T04:12:43;7.60;99.90
29571;DHT22;16814;52.118;11.436;2024-02-04T04:15:08;7.60;99.90
29571;DHT22;16814;52.118;11.436;2024-02-04T04:17:34;7.60;99.90
29571;DHT22;16814;52.118;11.436;2024-02-04T04:19:59;7.60;99.90
29571;DHT22;16814;52.118;11.436;2024-02-04T04:22:25;7.60;99.90
29571;DHT22;16814;52.118;11.436;2024-02-04T04:24:50;7.50;99.90
29571;DHT22;16814;52.118;11.436;2024-02-04T04:27:16;7.50;99.90
29571;DHT22;16814;52.118;11.436;2024-02-04T04:29:41;7.60;99.90
29571;DHT22;16814;52.118;11.436;2024-02-04T04:32:07;7.60;99.90
29571;DHT22;16814;52.118;11.436;2024-02-04T04:34:32;7.60;99.90
29571;DHT22;16814;52.118;11.436;2024-02-04T04:36:58;7.60;99.90
29571;DHT22;16814;52.118;11.436;2024-02-04T04:39:23;7.60;99.90
29571;DHT22;16814;52.118;11.436;2024-02-04T04:41:49;7.60;99.90
29571;DHT22;16814;52.118;11.436;2024-02-04T04:44:14;7.60;99.90
29571;DHT22;16814;52.118;11.436;2024-02-04T04:46:40;7.70;99.90
29571;DHT22;16814;52.118;11.436;2024-02-04T04:49:06;7.70;99.90
29571;DHT22;16814;52.118;11.436;2024-02-04T04:51:31;7.70;99.90
29571;DHT22;16814;52.118;11.436;2024-02-04T04:53:57;7.70;99.90
29571;DHT22;16814;52.118;11.436;2024-02-04T04:56:23;7.70;99.90
29571;DHT22;16814;52.118;11.436;2024-02-04T04:58:48;7.70;99.90
29571;DHT22;16814;52.118;11.436;2024-02-04T05:01:15;7.70;99.90
29571;DHT22;16814;52.118;11.436;2024-02-04T05:03:40;7.70;99.90
29571;DHT22;16814;52.118;11.436;2024-02-04T05:06:06;7.70;99.90
29571;DHT22;16814;52.118;11.436;2024-02-04T05:08:31;7.70;99.90
29571;DHT22;16814;52.118;11.436;2024-02-04T05:10:57;7.70;99.90
29571;DHT22;16814;52.118;11.436;2024-02-04T05:13:23;7.70;99.90
29571;DHT22;16814;52.118;11.436;2024-02-04T05:15:48;7.70;99.90
29571;DHT22;16814;52.118;11.436;2024-02-04T05:18:14;7.70;99.90
29571;DHT22;16814;52.118;11.436;2024-02-04T05:20:39;7.70;99.90
29571;DHT22;16814;52.118;11.436;2024-02-04T05:23:05;7.70;99.90
29571;DHT22;16814;52.118;11.436;2024-02-04T05:25:33;7.70;99.90
29571;DHT22;16814;52.118;11.436;2024-02-04T05:27:59;7.70;99.90
29571;DHT22;16814;52.118;11.436;2024-02-04T05:30:24;7.70;99.90
29571;DHT22;16814;52.118;11.436;2024-02-04T05:32:50;7.80;99.90
29571;DHT22;16814;52.118;11.436;2024-02-04T05:35:15;7.80;99.90
29571;DHT22;16814;52.118;11.436;2024-02-04T05:37:41;7.80;99.90
29571;DHT22;16814;52.118;11.436;2024-02-04T05:40:06;7.90;99.90
29571;DHT22;16814;52.118;11.436;2024-02-04T05:42:32;7.80;99.90
29571;DHT22;16814;52.118;11.436;2024-02-04T05:44:58;7.90;99.90
29571;DHT22;16814;52.118;11.436;2024-02-04T05:47:24;7.90;99.90
29571;DHT22;16814;52.118;11.436;2024-02-04T05:49:49;7.90;99.90
29571;DHT22;16814;52.118;11.436;2024-02-04T05:52:15;7.80;99.90
29571;DHT22;16814;52.118;11.436;2024-02-04T05:54:41;7.80;99.90
29571;DHT22;16814;52.118;11.436;2024-02-04T05:57:06;7.80;99.90
29571;DHT22;16814;52.118;11.436;2024-02-04T05:59:33;7.80;99.90
29571;DHT22;16814;52.118;11.436;2024-02-04T06:01:58;7.70;99.90
29571;DHT22;16814;52.118;11.436;2024-02-04T06:04:24;7.70;99.90
29571;DHT22;16814;52.118;11.436;2024-02-04T06:06:49;7.70;99.90
29571;DHT22;16814;52.118;11.436;2024-02-04T06:09:15;7.70;99.90
29571;DHT22;16814;52.118;11.436;2024-02-04T06:11:40;7.70;99.90
29571;DHT22;16814;52.118;11.436;2024-02-04T06:14:09;7.70;99.90
29571;DHT22;16814;52.118;11.436;2024-02-04T06:16:42;7.70;99.90
29571;DHT22;16814;52.118;11.436;2024-02-04T06:19:07;7.70;99.90
29571;DHT22;16814;52.118;11.436;2024-02-04T06:21:34;7.70;99.90
29571;DHT22;16814;52.118;11.436;2024-02-04T06:23:59;7.70;99.90
29571;DHT22;16814;52.118;11.436;2024-02-04T06:26:25;7.70;99.90
29571;DHT22;16814;52.118;11.436;2024-02-04T06:28:50;7.70;99.90
29571;DHT22;16814;52.118;11.436;2024-02-04T06:31:16;7.70;99.90
29571;DHT22;16814;52.118;11.436;2024-02-04T06:33:42;7.70;99.90
29571;DHT22;16814;52.118;11.436;2024-02-04T06:36:11;7.70;99.90
29571;DHT22;16814;52.118;11.436;2024-02-04T06:38:36;7.70;99.90
29571;DHT22;16814;52.118;11.436;2024-02-04T06:41:02;7.70;99.90
29571;DHT22;16814;52.118;11.436;2024-02-04T06:43:28;7.70;99.90
29571;DHT22;16814;52.118;11.436;2024-02-04T06:45:53;7.70;99.90
29571;DHT22;16814;52.118;11.436;2024-02-04T06:48:19;7.70;99.90
29571;DHT22;16814;52.118;11.436;2024-02-04T06:50:45;7.70;99.90
29571;DHT22;16814;52.118;11.436;2024-02-04T06:53:15;7.70;99.90
29571;DHT22;16814;52.118;11.436;2024-02-04T06:55:41;7.70;99.90
29571;DHT22;16814;52.118;11.436;2024-02-04T06:58:06;7.60;99.90
29571;DHT22;16814;52.118;11.436;2024-02-04T07:00:32;7.60;99.90
29571;DHT22;16814;52.118;11.436;2024-02-04T07:02:57;7.60;99.90
29571;DHT22;16814;52.118;11.436;2024-02-04T07:05:23;7.70;99.90
29571;DHT22;16814;52.118;11.436;2024-02-04T07:07:49;7.70;99.90
29571;DHT22;16814;52.118;11.436;2024-02-04T07:10:15;7.70;99.90
29571;DHT22;16814;52.118;11.436;2024-02-04T07:12:41;7.70;99.90
29571;DHT22;16814;52.118;11.436;2024-02-04T07:15:07;7.70;99.90
29571;DHT22;16814;52.118;11.436;2024-02-04T07:17:33;7.70;99.90
29571;DHT22;16814;52.118;11.436;2024-02-04T07:20:00;7.70;99.90
29571;DHT22;16814;52.118;11.436;2024-02-04T07:22:25;7.70;99.90
29571;DHT22;16814;52.118;11.436;2024-02-04T07:24:51;7.70;99.90
29571;DHT22;16814;52.118;11.436;2024-02-04T07:27:16;7.70;99.90
29571;DHT22;16814;52.118;11.436;2024-02-04T07:29:42;7.70;99.90
29571;DHT22;16814;52.118;11.436;2024-02-04T07:32:07;7.70;99.90
29571;DHT22;16814;52.118;11.436;2024-02-04T07:34:33;7.70;99.90
29571;DHT22;16814;52.118;11.436;2024-02-04T07:36:58;7.70;99.90
29571;DHT22;16814;52.118;11.436;2024-02-04T07:39:24;7.80;99.90
29571;DHT22;16814;52.118;11.436;2024-02-04T07:41:49;7.80;99.90
29571;DHT22;16814;52.118;11.436;2024-02-04T07:44:15;7.80;99.90
29571;DHT22;16814;52.118;11.436;2024-02-04T07:46:40;7.90;99.90
29571;DHT22;16814;52.118;11.436;2024-02-04T07:49:06;7.90;99.90
29571;DHT22;16814;52.118;11.436;2024-02-04T07:51:32;7.90;99.90
29571;DHT22;16814;52.118;11.436;2024-02-04T07:53:58;7.90;99.90
29571;DHT22;16814;52.118;11.436;2024-02-04T07:56:23;7.90;99.90
29571;DHT22;16814;52.118;11.436;2024-02-04T07:58:49;7.90;99.90
29571;DHT22;16814;52.118;11.436;2024-02-04T08:01:14;8.00;99.90
29571;DHT22;16814;52.118;11.436;2024-02-04T08:03:40;8.00;99.90
29571;DHT22;16814;52.118;11.436;2024-02-04T08:06:06;8.00;99.90
29571;DHT22;16814;52.118;11.436;2024-02-04T08:08:31;8.00;99.90
29571;DHT22;16814;52.118;11.436;2024-02-04T08:10:57;8.10;99.90
29571;DHT22;16814;52.118;11.436;2024-02-04T08:13:22;8.10;99.90
29571;DHT22;16814;52.118;11.436;2024-02-04T08:15:48;8.10;99.90
29571;DHT22;16814;52.118;11.436;2024-02-04T08:18:14;8.10;99.90
29571;DHT22;16814;52.118;11.436;2024-02-04T08:20:39;8.10;99.90
29571;DHT22;16814;52.118;11.436;2024-02-04T08:23:05;8.10;99.90
29571;DHT22;16814;52.118;11.436;2024-02-04T08:25:30;8.20;99.90
29571;DHT22;16814;52.118;11.436;2024-02-04T08:27:56;8.20;99.90
29571;DHT22;16814;52.118;11.436;2024-02-04T08:30:21;8.20;99.90
29571;DHT22;16814;52.118;11.436;2024-02-04T08:32:47;8.20;99.90
29571;DHT22;16814;52.118;11.436;2024-02-04T08:35:12;8.20;99.90
29571;DHT22;16814;52.118;11.436;2024-02-04T08:37:38;8.20;99.90
29571;DHT22;16814;52.118;11.436;2024-02-04T08:40:06;8.30;99.90
29571;DHT22;16814;52.118;11.436;2024-02-04T08:42:31;8.30;99.90
29571;DHT22;16814;52.118;11.436;2024-02-04T08:44:57;8.30;99.90
29571;DHT22;16814;52.118;11.436;2024-02-04T08:47:23;8.30;99.90
29571;DHT22;16814;52.118;11.436;2024-02-04T08:49:48;8.30;99.90
29571;DHT22;16814;52.118;11.436;2024-02-04T08:52:14;8.30;99.90
29571;DHT22;16814;52.118;11.436;2024-02-04T08:54:40;8.20;99.90
29571;DHT22;16814;52.118;11.436;2024-02-04T08:57:05;8.40;99.90
29571;DHT22;16814;52.118;11.436;2024-02-04T08:59:31;8.40;99.90
29571;DHT22;16814;52.118;11.436;2024-02-04T09:01:56;8.50;99.90
29571;DHT22;16814;52.118;11.436;2024-02-04T09:04:22;8.50;99.90
29571;DHT22;16814;52.118;11.436;2024-02-04T09:06:47;8.50;99.90
29571;DHT22;16814;52.118;11.436;2024-02-04T09:09:13;8.50;99.90
29571;DHT22;16814;52.118;11.436;2024-02-04T09:11:38;8.60;99.90
29571;DHT22;16814;52.118;11.436;2024-02-04T09:14:04;8.70;99.90
29571;DHT22;16814;52.118;11.436;2024-02-04T09:16:29;8.60;99.90
29571;DHT22;16814;52.118;11.436;2024-02-04T09:18:55;8.60;99.90
29571;DHT22;16814;52.118;11.436;2024-02-04T09:21:20;8.60;99.90
29571;DHT22;16814;52.118;11.436;2024-02-04T09:23:47;8.60;99.90
29571;DHT22;16814;52.118;11.436;2024-02-04T09:26:13;8.70;99.90
29571;DHT22;16814;52.118;11.436;2024-02-04T09:28:39;8.70;99.90
29571;DHT22;16814;52.118;11.436;2024-02-04T09:31:08;8.70;99.90
29571;DHT22;16814;52.118;11.436;2024-02-04T09:33:34;8.70;99.90
29571;DHT22;16814;52.118;11.436;2024-02-04T09:35:59;8.70;99.90
29571;DHT22;16814;52.118;11.436;2024-02-04T09:38:25;8.70;99.90
29571;DHT22;16814;52.118;11.436;2024-02-04T09:40:50;8.70;99.90
29571;DHT22;16814;52.118;11.436;2024-02-04T09:43:16;8.80;99.90
29571;DHT22;16814;52.118;11.436;2024-02-04T09:45:42;8.80;99.90
29571;DHT22;16814;52.118;11.436;2024-02-04T09:48:08;8.80;99.90
29571;DHT22;16814;52.118;11.436;2024-02-04T09:50:35;8.80;99.90
29571;DHT22;16814;52.118;11.436;2024-02-04T09:53:00;8.90;99.90
29571;DHT22;16814;52.118;11.436;2024-02-04T09:55:30;8.90;99.90
29571;DHT22;16814;52.118;11.436;2024-02-04T09:57:56;8.90;99.90
29571;DHT22;16814;52.118;11.436;2024-02-04T10:00:22;8.90;99.90
29571;DHT22;16814;52.118;11.436;2024-02-04T10:02:49;9.00;99.90
29571;DHT22;16814;52.118;11.436;2024-02-04T10:05:17;8.90;99.90
29571;DHT22;16814;52.118;11.436;2024-02-04T10:07:43;9.00;99.90
29571;DHT22;16814;52.118;11.436;2024-02-04T10:10:09;9.00;99.90
29571;DHT22;16814;52.118;11.436;2024-02-04T10:12:35;9.00;99.90
29571;DHT22;16814;52.118;11.436;2024-02-04T10:15:03;9.00;99.90
29571;DHT22;16814;52.118;11.436;2024-02-04T10:17:30;9.00;99.90
29571;DHT22;16814;52.118;11.436;2024-02-04T10:19:56;9.00;99.90
29571;DHT22;16814;52.118;11.436;2024-02-04T10:22:22;9.00;99.90
29571;DHT22;16814;52.118;11.436;2024-02-04T10:24:48;9.00;99.90
29571;DHT22;16814;52.118;11.436;2024-02-04T10:27:15;9.10;99.90
29571;DHT22;16814;52.118;11.436;2024-02-04T10:29:41;9.00;99.90
29571;DHT22;16814;52.118;11.436;2024-02-04T10:32:07;9.00;99.90
29571;DHT22;16814;52.118;11.436;2024-02-04T10:34:37;9.00;99.90
29571;DHT22;16814;52.118;11.436;2024-02-04T10:37:03;9.00;99.90
29571;DHT22;16814;52.118;11.436;2024-02-04T10:39:28;9.00;99.90
29571;DHT22;16814;52.118;11.436;2024-02-04T10:41:56;9.00;99.90
29571;DHT22;16814;52.118;11.436;2024-02-04T10:44:28;9.00;99.90
29571;DHT22;16814;52.118;11.436;2024-02-04T10:47:02;9.00;99.90
29571;DHT22;16814;52.118;11.436;2024-02-04T10:49:30;9.00;99.90
29571;DHT22;16814;52.118;11.436;2024-02-04T10:51:59;8.90;99.90
29571;DHT22;16814;52.118;11.436;2024-02-04T10:54:27;9.00;99.90
29571;DHT22;16814;52.118;11.436;2024-02-04T10:57:05;9.00;99.90
29571;DHT22;16814;52.118;11.436;2024-02-04T10:59:31;9.00;99.90
29571;DHT22;16814;52.118;11.436;2024-02-04T11:01:58;9.10;99.90
29571;DHT22;16814;52.118;11.436;2024-02-04T11:04:24;9.10;99.90
29571;DHT22;16814;52.118;11.436;2024-02-04T11:06:50;9.20;99.90
29571;DHT22;16814;52.118;11.436;2024-02-04T11:09:17;9.20;99.90
29571;DHT22;16814;52.118;11.436;2024-02-04T11:11:44;9.20;99.90
29571;DHT22;16814;52.118;11.436;2024-02-04T11:14:17;9.30;99.90
29571;DHT22;16814;52.118;11.436;2024-02-04T11:24:51;9.10;99.90
29571;DHT22;16814;52.118;11.436;2024-02-04T11:27:19;9.10;99.90
29571;DHT22;16814;52.118;11.436;2024-02-04T11:29:45;9.10;99.90
29571;DHT22;16814;52.118;11.436;2024-02-04T11:32:11;9.10;99.90
29571;DHT22;16814;52.118;11.436;2024-02-04T11:34:37;9.10;99.90
29571;DHT22;16814;52.118;11.436;2024-02-04T11:37:15;9.10;99.90
29571;DHT22;16814;52.118;11.436;2024-02-04T11:39:49;9.10;99.90
29571;DHT22;16814;52.118;11.436;2024-02-04T11:42:15;9.20;99.90
29571;DHT22;16814;52.118;11.436;2024-02-04T11:44:41;9.20;99.90
29571;DHT22;16814;52.118;11.436;2024-02-04T11:47:07;9.20;99.90
29571;DHT22;16814;52.118;11.436;2024-02-04T11:49:33;9.20;99.90
29571;DHT22;16814;52.118;11.436;2024-02-04T11:51:59;9.20;99.90
29571;DHT22;16814;52.118;11.436;2024-02-04T11:54:25;9.20;99.90
29571;DHT22;16814;52.118;11.436;2024-02-04T11:56:52;9.20;99.90
29571;DHT22;16814;52.118;11.436;2024-02-04T11:59:24;9.30;99.90
29571;DHT22;16814;52.118;11.436;2024-02-04T12:01:54;9.30;99.90
29571;DHT22;16814;52.118;11.436;2024-02-04T12:04:20;9.30;99.90
29571;DHT22;16814;52.118;11.436;2024-02-04T12:06:47;9.40;99.90
29571;DHT22;16814;52.118;11.436;2024-02-04T12:09:16;9.50;99.90
29571;DHT22;16814;52.118;11.436;2024-02-04T12:11:44;9.40;99.90
29571;DHT22;16814;52.118;11.436;2024-02-04T12:14:10;9.40;99.90
29571;DHT22;16814;52.118;11.436;2024-02-04T12:16:35;9.40;99.90
29571;DHT22;16814;52.118;11.436;2024-02-04T12:19:04;9.40;99.90
29571;DHT22;16814;52.118;11.436;2024-02-04T12:21:30;9.40;99.90
29571;DHT22;16814;52.118;11.436;2024-02-04T12:23:56;9.40;99.90
29571;DHT22;16814;52.118;11.436;2024-02-04T12:26:22;9.40;99.90
29571;DHT22;16814;52.118;11.436;2024-02-04T12:28:49;9.40;99.90
29571;DHT22;16814;52.118;11.436;2024-02-04T12:31:19;9.40;99.90
29571;DHT22;16814;52.118;11.436;2024-02-04T12:33:56;9.30;99.90
29571;DHT22;16814;52.118;11.436;2024-02-04T12:36:30;9.20;99.90
29571;DHT22;16814;52.118;11.436;2024-02-04T12:38:57;9.20;99.90
29571;DHT22;16814;52.118;11.436;2024-02-04T12:41:23;9.20;99.90
29571;DHT22;16814;52.118;11.436;2024-02-04T12:43:54;9.20;99.90
29571;DHT22;16814;52.118;11.436;2024-02-04T12:46:20;9.20;99.90
29571;DHT22;16814;52.118;11.436;2024-02-04T12:48:51;9.20;99.90
29571;DHT22;16814;52.118;11.436;2024-02-04T12:53:50;9.10;99.90
29571;DHT22;16814;52.118;11.436;2024-02-04T12:56:26;9.10;99.90
29571;DHT22;16814;52.118;11.436;2024-02-04T12:58:52;9.00;99.90
29571;DHT22;16814;52.118;11.436;2024-02-04T13:01:17;9.00;99.90
29571;DHT22;16814;52.118;11.436;2024-02-04T13:03:43;9.00;99.90
29571;DHT22;16814;52.118;11.436;2024-02-04T13:06:10;9.00;99.90
29571;DHT22;16814;52.118;11.436;2024-02-04T13:08:35;9.00;99.90
29571;DHT22;16814;52.118;11.436;2024-02-04T13:11:01;9.00;99.90
29571;DHT22;16814;52.118;11.436;2024-02-04T13:13:26;9.00;99.90
29571;DHT22;16814;52.118;11.436;2024-02-04T13:15:54;9.00;99.90
29571;DHT22;16814;52.118;11.436;2024-02-04T13:18:19;9.00;99.90
29571;DHT22;16814;52.118;11.436;2024-02-04T13:20:45;9.00;99.90
29571;DHT22;16814;52.118;11.436;2024-02-04T13:23:11;9.00;99.90
29571;DHT22;16814;52.118;11.436;2024-02-04T13:25:37;9.00;99.90
29571;DHT22;16814;52.118;11.436;2024-02-04T13:28:03;9.00;99.90
29571;DHT22;16814;52.118;11.436;2024-02-04T13:30:29;9.00;99.90
29571;DHT22;16814;52.118;11.436;2024-02-04T13:32:55;9.00;99.90
29571;DHT22;16814;52.118;11.436;2024-02-04T13:35:23;8.90;99.90
29571;DHT22;16814;52.118;11.436;2024-02-04T13:37:49;8.90;99.90
29571;DHT22;16814;52.118;11.436;2024-02-04T13:40:19;8.90;99.90
29571;DHT22;16814;52.118;11.436;2024-02-04T13:42:45;8.90;99.90
29571;DHT22;16814;52.118;11.436;2024-02-04T13:45:12;8.90;99.90
29571;DHT22;16814;52.118;11.436;2024-02-04T13:47:40;8.80;99.90
29571;DHT22;16814;52.118;11.436;2024-02-04T13:50:06;8.80;99.90
29571;DHT22;16814;52.118;11.436;2024-02-04T13:52:34;8.80;99.90
29571;DHT22;16814;52.118;11.436;2024-02-04T13:54:59;8.80;99.90
29571;DHT22;16814;52.118;11.436;2024-02-04T13:57:25;8.80;99.90
29571;DHT22;16814;52.118;11.436;2024-02-04T13:59:51;9.20;99.90
29571;DHT22;16814;52.118;11.436;2024-02-04T14:02:16;8.80;99.90
29571;DHT22;16814;52.118;11.436;2024-02-04T14:04:42;8.80;99.90
29571;DHT22;16814;52.118;11.436;2024-02-04T14:07:08;8.80;99.90
29571;DHT22;16814;52.118;11.436;2024-02-04T14:09:34;8.80;99.90
29571;DHT22;16814;52.118;11.436;2024-02-04T14:12:02;8.80;99.90
29571;DHT22;16814;52.118;11.436;2024-02-04T14:14:28;8.80;99.90
29571;DHT22;16814;52.118;11.436;2024-02-04T14:16:54;8.80;99.90
29571;DHT22;16814;52.118;11.436;2024-02-04T14:19:19;8.80;99.90
29571;DHT22;16814;52.118;11.436;2024-02-04T14:21:45;8.70;99.90
29571;DHT22;16814;52.118;11.436;2024-02-04T14:24:10;8.90;99.90
29571;DHT22;16814;52.118;11.436;2024-02-04T14:26:36;8.80;99.90
29571;DHT22;16814;52.118;11.436;2024-02-04T14:29:02;8.80;99.90
29571;DHT22;16814;52.118;11.436;2024-02-04T14:31:27;8.80;99.90
29571;DHT22;16814;52.118;11.436;2024-02-04T14:33:53;8.80;99.90
29571;DHT22;16814;52.118;11.436;2024-02-04T14:36:18;8.70;99.90
29571;DHT22;16814;52.118;11.436;2024-02-04T14:38:44;8.70;99.90
29571;DHT22;16814;52.118;11.436;2024-02-04T14:41:10;8.70;99.90
29571;DHT22;16814;52.118;11.436;2024-02-04T14:43:36;8.70;99.90
29571;DHT22;16814;52.118;11.436;2024-02-04T14:46:01;8.70;99.90
29571;DHT22;16814;52.118;11.436;2024-02-04T14:48:27;8.70;99.90
29571;DHT22;16814;52.118;11.436;2024-02-04T14:50:52;8.70;99.90
29571;DHT22;16814;52.118;11.436;2024-02-04T14:53:19;8.80;99.90
29571;DHT22;16814;52.118;11.436;2024-02-04T14:55:45;8.80;99.90
29571;DHT22;16814;52.118;11.436;2024-02-04T14:58:10;8.80;99.90
29571;DHT22;16814;52.118;11.436;2024-02-04T15:00:36;8.80;99.90
29571;DHT22;16814;52.118;11.436;2024-02-04T15:03:02;8.80;99.90
29571;DHT22;16814;52.118;11.436;2024-02-04T15:05:27;8.80;99.90
29571;DHT22;16814;52.118;11.436;2024-02-04T15:07:53;8.70;99.90
29571;DHT22;16814;52.118;11.436;2024-02-04T15:10:19;8.70;99.90
29571;DHT22;16814;52.118;11.436;2024-02-04T15:12:45;8.70;99.90
29571;DHT22;16814;52.118;11.436;2024-02-04T15:15:11;8.70;99.90
29571;DHT22;16814;52.118;11.436;2024-02-04T15:17:37;8.70;99.90
29571;DHT22;16814;52.118;11.436;2024-02-04T15:20:03;8.70;99.90
29571;DHT22;16814;52.118;11.436;2024-02-04T15:22:29;8.70;99.90
29571;DHT22;16814;52.118;11.436;2024-02-04T15:24:56;8.70;99.90
29571;DHT22;16814;52.118;11.436;2024-02-04T15:27:23;8.70;99.90
29571;DHT22;16814;52.118;11.436;2024-02-04T15:29:49;8.70;99.90
29571;DHT22;16814;52.118;11.436;2024-02-04T15:32:15;8.70;99.90
29571;DHT22;16814;52.118;11.436;2024-02-04T15:34:41;8.70;99.90
29571;DHT22;16814;52.118;11.436;2024-02-04T15:37:07;8.70;99.90